createdAt,value
2022-10-02T00:01:22.031Z,89.12
2022-10-02T00:03:49.994Z,88.97
2022-10-02T00:06:25.738Z,89.23
2022-10-02T00:09:00.510Z,88.90
2022-10-02T00:11:48.717Z,88.84
2022-10-02T00:14:20.021Z,88.85
2022-10-02T00:16:55.332Z,88.92
2022-10-02T00:19:22.341Z,88.63
2022-10-02T00:22:20.624Z,88.58
2022-10-02T00:25:03.683Z,88.22
2022-10-02T00:27:54.270Z,88.20
2022-10-02T00:30:21.052Z,88.17
2022-10-02T00:33:19.605Z,88.71
2022-10-02T00:36:15.605Z,88.38
2022-10-02T00:38:57.014Z,88.69
2022-10-02T00:42:21.058Z,88.75
2022-10-02T00:45:20.288Z,88.89
2022-10-02T00:48:20.306Z,88.92
2022-10-02T00:51:27.843Z,88.99
2022-10-02T00:54:19.141Z,89.26
2022-10-02T00:57:17.721Z,89.53
2022-10-02T01:00:13.570Z,89.77
2022-10-02T01:03:13.700Z,89.81
2022-10-02T01:05:40.475Z,89.12
2022-10-02T01:08:08.019Z,90.68
2022-10-02T01:10:37.145Z,90.99
2022-10-02T01:13:05.620Z,90.72
2022-10-02T01:15:37.846Z,90.61
2022-10-02T01:18:06.220Z,90.69
2022-10-02T01:20:39.765Z,90.48
2022-10-02T01:23:06.259Z,90.36
2022-10-02T01:25:33.090Z,90.56
2022-10-02T01:27:59.928Z,91.04
2022-10-02T01:30:28.757Z,91.28
2022-10-02T01:32:59.808Z,92.17
2022-10-02T01:35:32.897Z,92.13
2022-10-02T01:38:03.455Z,92.22
2022-10-02T01:40:38.438Z,92.29
2022-10-02T01:43:12.021Z,92.32
2022-10-02T01:46:00.220Z,91.74
2022-10-02T01:48:46.870Z,91.74
2022-10-02T01:51:41.178Z,91.81
2022-10-02T01:54:37.737Z,91.06
2022-10-02T01:57:07.196Z,90.57
2022-10-02T01:59:58.249Z,90.35
2022-10-02T02:02:24.768Z,90.13
2022-10-02T02:05:25.426Z,89.59
2022-10-02T02:08:06.844Z,89.03
2022-10-02T02:11:01.569Z,88.71
2022-10-02T02:13:53.461Z,88.57
2022-10-02T02:16:27.529Z,88.78
2022-10-02T02:19:02.218Z,88.71
2022-10-02T02:21:37.727Z,88.61
2022-10-02T02:24:10.520Z,88.71
2022-10-02T02:26:39.123Z,88.86
2022-10-02T02:29:09.608Z,88.52
2022-10-02T02:31:43.867Z,88.57
2022-10-02T02:34:16.120Z,88.23
2022-10-02T02:36:48.453Z,88.24
2022-10-02T02:39:28.966Z,88.29
2022-10-02T02:42:01.173Z,87.89
2022-10-02T02:44:41.242Z,88.16
2022-10-02T02:47:19.373Z,88.23
2022-10-02T02:49:57.430Z,88.04
2022-10-02T02:52:34.099Z,87.82
2022-10-02T02:55:15.254Z,88.22
2022-10-02T02:57:49.974Z,88.36
2022-10-02T03:00:17.736Z,88.16
2022-10-02T03:02:44.303Z,88.44
2022-10-02T03:05:16.278Z,88.45
2022-10-02T03:08:01.754Z,88.56
2022-10-02T03:11:04.163Z,88.79
2022-10-02T03:14:09.771Z,88.91
2022-10-02T03:16:36.436Z,89.12
2022-10-02T03:19:03.151Z,89.15
2022-10-02T03:21:39.955Z,89.79
2022-10-02T03:24:15.454Z,90.18
2022-10-02T03:26:54.394Z,89.78
2022-10-02T03:29:31.015Z,90.05
2022-10-02T03:31:59.709Z,89.77
2022-10-02T03:34:26.945Z,89.92
2022-10-02T03:36:54.070Z,89.64
2022-10-02T03:39:25.216Z,89.47
2022-10-02T03:41:53.260Z,89.38
2022-10-02T03:44:19.723Z,89.05
2022-10-02T03:46:46.260Z,88.46
2022-10-02T03:49:12.768Z,88.45
2022-10-02T03:51:39.357Z,88.41
2022-10-02T03:54:20.098Z,88.27
2022-10-02T03:57:04.887Z,88.32
2022-10-02T03:59:44.643Z,88.01
2022-10-02T04:02:49.876Z,87.72
2022-10-02T04:05:19.357Z,87.84
2022-10-02T04:07:52.819Z,88.03
2022-10-02T04:10:44.940Z,87.92
2022-10-02T04:13:27.997Z,88.10
2022-10-02T04:16:14.773Z,88.03
2022-10-02T04:18:54.687Z,88.06
2022-10-02T04:21:34.354Z,87.70
2022-10-02T04:24:25.974Z,87.37
2022-10-02T04:27:05.017Z,87.33
2022-10-02T04:29:42.361Z,87.19
2022-10-02T04:32:25.762Z,87.02
2022-10-02T04:34:52.918Z,86.77
2022-10-02T04:37:37.389Z,86.50
2022-10-02T04:40:12.752Z,86.75
2022-10-02T04:42:58.329Z,86.91
2022-10-02T04:45:41.879Z,86.60
2022-10-02T04:48:26.565Z,86.98
2022-10-02T04:51:14.611Z,87.09
2022-10-02T04:53:58.528Z,86.90
2022-10-02T04:56:55.558Z,86.64
2022-10-02T04:59:40.404Z,86.66
2022-10-02T05:02:19.063Z,86.34
2022-10-02T05:05:06.835Z,86.21
2022-10-02T05:07:55.222Z,86.18
2022-10-02T05:10:40.566Z,86.10
2022-10-02T05:13:12.980Z,86.10
2022-10-02T05:15:49.902Z,86.18
2022-10-02T05:18:18.141Z,86.01
2022-10-02T05:21:13.332Z,85.93
2022-10-02T05:24:12.260Z,85.60
2022-10-02T05:26:50.133Z,85.77
2022-10-02T05:29:19.525Z,86.28
2022-10-02T05:31:46.006Z,86.33
2022-10-02T05:34:34.073Z,85.98
2022-10-02T05:37:19.434Z,85.75
2022-10-02T05:39:57.378Z,85.58
2022-10-02T05:42:42.878Z,85.98
2022-10-02T05:45:26.629Z,86.43
2022-10-02T05:48:01.496Z,86.25
2022-10-02T05:50:34.231Z,86.26
2022-10-02T05:53:08.857Z,85.96
2022-10-02T05:55:57.312Z,86.21
2022-10-02T05:58:36.688Z,86.07
2022-10-02T06:01:17.852Z,85.78
2022-10-02T06:03:55.923Z,85.78
2022-10-02T06:06:34.800Z,85.44
2022-10-02T06:09:19.624Z,85.68
2022-10-02T06:12:10.942Z,85.30
2022-10-02T06:14:45.249Z,85.22
2022-10-02T06:17:22.382Z,85.52
2022-10-02T06:20:03.545Z,85.54
2022-10-02T06:23:01.571Z,85.09
2022-10-02T06:25:36.900Z,85.12
2022-10-02T06:28:35.095Z,85.09
2022-10-02T06:31:11.032Z,85.12
2022-10-02T06:33:40.208Z,85.19
2022-10-02T06:36:40.400Z,84.56
2022-10-02T06:39:26.288Z,84.54
2022-10-02T06:42:07.781Z,84.65
2022-10-02T06:44:49.145Z,85.13
2022-10-02T06:47:37.194Z,85.05
2022-10-02T06:50:40.158Z,85.36
2022-10-02T06:53:51.814Z,85.02
2022-10-02T06:56:47.851Z,84.81
2022-10-02T06:59:33.320Z,85.35
2022-10-02T07:02:32.601Z,85.47
2022-10-02T07:05:19.908Z,85.46
2022-10-02T07:08:14.492Z,85.35
2022-10-02T07:11:10.407Z,84.95
2022-10-02T07:13:59.082Z,84.54
2022-10-02T07:16:43.147Z,84.58
2022-10-02T07:19:45.547Z,84.51
2022-10-02T07:22:43.521Z,84.18
2022-10-02T07:25:27.535Z,84.67
2022-10-02T07:28:13.041Z,84.40
2022-10-02T07:30:54.025Z,84.38
2022-10-02T07:33:40.065Z,85.18
2022-10-02T07:36:50.753Z,84.94
2022-10-02T07:39:26.439Z,84.51
2022-10-02T07:42:27.043Z,85.53
2022-10-02T07:45:10.933Z,85.83
2022-10-02T07:48:11.146Z,85.92
2022-10-02T07:50:40.709Z,85.91
2022-10-02T07:53:30.996Z,85.75
2022-10-02T07:56:00.134Z,85.72
2022-10-02T07:58:50.893Z,85.76
2022-10-02T08:01:24.878Z,85.60
2022-10-02T08:04:02.623Z,86.05
2022-10-02T08:06:29.690Z,85.75
2022-10-02T08:09:02.162Z,85.95
2022-10-02T08:11:38.966Z,86.75
2022-10-02T08:14:20.543Z,86.67
2022-10-02T08:16:59.861Z,86.78
2022-10-02T08:19:39.258Z,87.80
2022-10-02T08:22:33.185Z,88.75
2022-10-02T08:25:20.663Z,87.97
2022-10-02T08:27:58.589Z,88.45
2022-10-02T08:30:25.394Z,89.52
2022-10-02T08:32:53.652Z,90.39
2022-10-02T08:35:21.160Z,91.08
2022-10-02T08:38:17.868Z,91.09
2022-10-02T08:40:50.574Z,91.95
2022-10-02T08:43:35.058Z,91.17
2022-10-02T08:46:24.965Z,92.25
2022-10-02T08:49:07.304Z,91.18
2022-10-02T08:51:56.115Z,91.59
2022-10-02T08:55:00.082Z,92.57
2022-10-02T08:57:45.558Z,92.28
2022-10-02T09:00:31.230Z,93.18
2022-10-02T09:03:15.399Z,92.85
2022-10-02T09:05:56.453Z,93.21
2022-10-02T09:09:04.887Z,92.37
2022-10-02T09:11:50.375Z,93.02
2022-10-02T09:14:32.419Z,92.97
2022-10-02T09:17:44.036Z,93.00
2022-10-02T09:20:29.288Z,92.54
2022-10-02T09:23:23.891Z,93.54
2022-10-02T09:26:18.829Z,94.88
2022-10-02T09:29:13.064Z,94.62
2022-10-02T09:31:56.134Z,93.49
2022-10-02T09:35:09.182Z,95.11
2022-10-02T09:37:44.043Z,94.88
2022-10-02T09:40:40.786Z,94.53
2022-10-02T09:43:50.614Z,95.55
2022-10-02T09:46:39.207Z,95.12
2022-10-02T09:49:36.375Z,96.49
2022-10-02T09:52:21.595Z,94.97
2022-10-02T09:55:29.406Z,95.58
2022-10-02T09:58:08.276Z,96.05
2022-10-02T10:01:15.095Z,96.21
2022-10-02T10:03:50.373Z,96.24
2022-10-02T10:06:44.873Z,96.63
2022-10-02T10:09:49.613Z,96.33
2022-10-02T10:12:37.208Z,94.76
2022-10-02T10:15:48.277Z,95.70
2022-10-02T10:18:34.124Z,96.26
2022-10-02T10:21:25.739Z,95.48
2022-10-02T10:24:34.206Z,95.39
2022-10-02T10:27:13.280Z,94.68
2022-10-02T10:30:00.413Z,94.17
2022-10-02T10:32:44.964Z,93.12
2022-10-02T10:35:31.368Z,94.54
2022-10-02T10:38:34.884Z,94.31
2022-10-02T10:41:09.382Z,94.27
2022-10-02T10:43:55.895Z,94.73
2022-10-02T10:46:59.000Z,94.69
2022-10-02T10:50:02.906Z,95.05
2022-10-02T10:52:47.934Z,95.98
2022-10-02T10:55:32.916Z,95.96
2022-10-02T10:58:09.086Z,96.16
2022-10-02T11:01:13.255Z,94.44
2022-10-02T11:04:16.469Z,94.94
2022-10-02T11:07:07.882Z,95.31
2022-10-02T11:09:55.670Z,96.08
2022-10-02T11:12:33.696Z,95.05
2022-10-02T11:15:24.961Z,94.39
2022-10-02T11:18:08.223Z,94.21
2022-10-02T11:21:11.927Z,93.81
2022-10-02T11:23:47.767Z,92.82
2022-10-02T11:26:43.194Z,93.85
2022-10-02T11:29:18.746Z,93.18
2022-10-02T11:32:14.279Z,94.19
2022-10-02T11:35:19.274Z,94.40
2022-10-02T11:38:03.061Z,94.85
2022-10-02T11:40:55.966Z,95.61
2022-10-02T11:43:51.365Z,95.90
2022-10-02T11:46:44.317Z,95.24
2022-10-02T11:49:27.063Z,93.96
2022-10-02T11:52:22.578Z,96.13
2022-10-02T11:55:09.976Z,96.53
2022-10-02T11:57:47.922Z,95.95
2022-10-02T12:00:33.095Z,96.02
2022-10-02T12:03:20.482Z,96.97
2022-10-02T12:05:53.432Z,97.20
2022-10-02T12:08:34.292Z,97.03
2022-10-02T12:11:10.687Z,96.19
2022-10-02T12:14:06.578Z,96.49
2022-10-02T12:16:39.018Z,95.82
2022-10-02T12:19:24.356Z,95.55
2022-10-02T12:22:31.960Z,96.00
2022-10-02T12:25:36.575Z,96.02
2022-10-02T12:28:21.286Z,95.98
2022-10-02T12:31:05.851Z,95.93
2022-10-02T12:33:56.889Z,95.61
2022-10-02T12:36:49.154Z,95.68
2022-10-02T12:39:30.750Z,95.39
2022-10-02T12:42:36.927Z,95.37
2022-10-02T12:45:18.829Z,94.86
2022-10-02T12:48:41.314Z,95.42
2022-10-02T12:51:41.028Z,96.13
2022-10-02T12:54:43.124Z,95.64
2022-10-02T12:57:09.628Z,95.63
2022-10-02T12:59:55.780Z,96.10
2022-10-02T13:03:12.341Z,95.94
2022-10-02T13:06:04.409Z,96.89
2022-10-02T13:09:03.010Z,96.59
2022-10-02T13:11:41.386Z,96.13
2022-10-02T13:14:15.515Z,95.55
2022-10-02T13:16:45.102Z,97.15
2022-10-02T13:19:30.433Z,96.19
2022-10-02T13:22:31.327Z,96.83
2022-10-02T13:25:16.589Z,98.05
2022-10-02T13:28:13.735Z,96.50
2022-10-02T13:31:02.584Z,97.13
2022-10-02T13:33:51.167Z,97.59
2022-10-02T13:36:44.067Z,98.89
2022-10-02T13:39:22.321Z,98.90
2022-10-02T13:42:10.777Z,100.00
2022-10-02T13:44:49.691Z,100.00
2022-10-02T13:47:40.692Z,98.84
2022-10-02T13:50:19.902Z,98.89
2022-10-02T13:53:12.002Z,96.86
2022-10-02T13:55:47.490Z,98.27
2022-10-02T13:58:37.566Z,98.43
2022-10-02T14:01:33.485Z,98.28
2022-10-02T14:04:20.926Z,97.70
2022-10-02T14:07:01.408Z,97.54
2022-10-02T14:09:51.475Z,97.73
2022-10-02T14:12:53.677Z,95.24
2022-10-02T14:15:26.421Z,95.98
2022-10-02T14:18:30.645Z,96.56
2022-10-02T14:21:22.035Z,95.78
2022-10-02T14:24:08.040Z,95.99
2022-10-02T14:26:49.946Z,95.87
2022-10-02T14:29:50.948Z,95.89
2022-10-02T14:32:30.195Z,96.38
2022-10-02T14:35:17.090Z,95.74
2022-10-02T14:38:05.375Z,96.54
2022-10-02T14:42:05.341Z,95.33
2022-10-02T14:45:29.507Z,95.00
2022-10-02T14:48:14.372Z,95.25
2022-10-02T14:50:59.961Z,96.03
2022-10-02T14:54:14.209Z,96.14
2022-10-02T14:57:28.246Z,95.52
2022-10-02T15:00:54.428Z,96.06
2022-10-02T15:04:11.097Z,96.47
2022-10-02T15:07:18.330Z,97.12
2022-10-02T15:10:09.370Z,95.32
2022-10-02T15:12:36.216Z,95.71
2022-10-02T15:15:11.507Z,94.40
2022-10-02T15:18:00.513Z,95.35
2022-10-02T15:20:52.416Z,94.92
2022-10-02T15:23:50.510Z,94.52
2022-10-02T15:26:38.811Z,95.22
2022-10-02T15:29:30.569Z,95.34
2022-10-02T15:32:19.174Z,94.77
2022-10-02T15:35:15.114Z,94.53
2022-10-02T15:38:12.318Z,95.71
2022-10-02T15:40:47.060Z,95.19
2022-10-02T15:43:17.057Z,95.53
2022-10-02T15:45:53.114Z,95.12
2022-10-02T15:48:42.605Z,94.67
2022-10-02T15:51:28.726Z,95.10
2022-10-02T15:54:04.187Z,95.60
2022-10-02T15:56:52.587Z,95.13
2022-10-02T16:00:07.347Z,95.76
2022-10-02T16:02:48.876Z,95.43
2022-10-02T16:05:31.843Z,95.22
2022-10-02T16:08:22.521Z,94.73
2022-10-02T16:11:04.324Z,94.30
2022-10-02T16:13:48.276Z,94.57
2022-10-02T16:17:17.408Z,95.42
2022-10-02T16:20:21.282Z,95.91
2022-10-02T16:23:01.325Z,95.56
2022-10-02T16:26:07.617Z,95.66
2022-10-02T16:28:52.259Z,96.29
2022-10-02T16:31:25.944Z,95.52
2022-10-02T16:34:15.090Z,96.58
2022-10-02T16:36:50.610Z,96.36
2022-10-02T16:39:36.058Z,96.58
2022-10-02T16:42:20.354Z,96.98
2022-10-02T16:45:04.972Z,96.43
2022-10-02T16:48:08.183Z,96.08
2022-10-02T16:50:46.395Z,95.38
2022-10-02T16:53:42.526Z,95.27
2022-10-02T16:56:27.466Z,95.70
2022-10-02T16:59:21.732Z,95.79
2022-10-02T17:02:18.882Z,95.73
2022-10-02T17:05:00.969Z,96.31
2022-10-02T17:07:30.929Z,96.22
2022-10-02T17:10:19.146Z,96.79
2022-10-02T17:13:16.091Z,96.57
2022-10-02T17:15:59.749Z,95.98
2022-10-02T17:18:48.951Z,96.23
2022-10-02T17:21:28.061Z,96.32
2022-10-02T17:23:54.627Z,96.46
2022-10-02T17:26:41.097Z,96.66
2022-10-02T17:29:39.062Z,96.65
2022-10-02T17:32:11.368Z,96.57
2022-10-02T17:34:49.484Z,96.88
2022-10-02T17:37:17.997Z,96.77
2022-10-02T17:40:10.523Z,96.72
2022-10-02T17:42:46.207Z,96.85
2022-10-02T17:45:28.310Z,96.93
2022-10-02T17:48:17.452Z,96.84
2022-10-02T17:50:56.324Z,96.90
2022-10-02T17:54:01.051Z,96.95
2022-10-02T17:56:28.220Z,96.48
2022-10-02T17:59:33.503Z,96.78
2022-10-02T18:02:07.545Z,96.58
2022-10-02T18:05:14.059Z,96.63
2022-10-02T18:07:43.597Z,96.04
2022-10-02T18:10:28.614Z,95.98
2022-10-02T18:13:15.579Z,95.93
2022-10-02T18:15:45.326Z,95.83
2022-10-02T18:18:24.143Z,95.84
2022-10-02T18:21:07.797Z,96.32
2022-10-02T18:24:12.203Z,97.05
2022-10-02T18:27:15.907Z,97.56
2022-10-02T18:29:53.035Z,97.85
2022-10-02T18:32:27.116Z,98.01
2022-10-02T18:35:26.075Z,98.27
2022-10-02T18:38:11.365Z,98.45
2022-10-02T18:40:57.757Z,98.88
2022-10-02T18:43:51.513Z,98.90
2022-10-02T18:46:49.750Z,98.85
2022-10-02T18:49:43.295Z,98.69
2022-10-02T18:52:28.708Z,99.06
2022-10-02T18:55:17.338Z,99.40
2022-10-02T18:58:24.214Z,99.27
2022-10-02T19:01:00.202Z,99.30
2022-10-02T19:03:55.995Z,99.35
2022-10-02T19:06:34.469Z,99.07
2022-10-02T19:09:14.107Z,99.27
2022-10-02T19:11:47.451Z,99.10
2022-10-02T19:14:21.615Z,99.10
2022-10-02T19:17:27.971Z,99.06
2022-10-02T19:19:56.340Z,98.95
2022-10-02T19:22:38.373Z,99.04
2022-10-02T19:25:16.283Z,99.01
2022-10-02T19:27:50.495Z,99.33
2022-10-02T19:30:30.404Z,99.39
2022-10-02T19:33:12.601Z,99.09
2022-10-02T19:35:43.512Z,99.36
2022-10-02T19:38:22.259Z,99.43
2022-10-02T19:40:55.214Z,99.15
2022-10-02T19:43:34.536Z,99.35
2022-10-02T19:46:06.330Z,98.96
2022-10-02T19:48:33.866Z,98.87
2022-10-02T19:51:08.160Z,98.84
2022-10-02T19:53:40.590Z,98.33
2022-10-02T19:56:14.959Z,98.62
2022-10-02T19:58:48.616Z,98.17
2022-10-02T20:01:22.553Z,97.85
2022-10-02T20:03:55.352Z,97.16
2022-10-02T20:06:25.347Z,97.15
2022-10-02T20:09:02.925Z,97.27
2022-10-02T20:11:41.949Z,97.80
2022-10-02T20:14:17.207Z,98.05
2022-10-02T20:17:02.979Z,98.68
2022-10-02T20:19:37.051Z,98.82
2022-10-02T20:22:28.985Z,98.05
2022-10-02T20:25:09.453Z,98.84
2022-10-02T20:27:53.189Z,98.39
2022-10-02T20:30:22.986Z,98.61
2022-10-02T20:33:08.683Z,98.26
2022-10-02T20:35:48.035Z,97.03
2022-10-02T20:38:37.464Z,98.03
2022-10-02T20:41:14.678Z,97.16
2022-10-02T20:43:48.207Z,96.68
2022-10-02T20:46:33.765Z,96.83
2022-10-02T20:49:28.664Z,96.51
2022-10-02T20:52:29.682Z,97.61
2022-10-02T20:55:18.261Z,96.56
2022-10-02T20:58:01.475Z,96.79
2022-10-02T21:00:43.127Z,97.26
2022-10-02T21:03:28.766Z,96.21
2022-10-02T21:06:19.966Z,96.75
2022-10-02T21:09:11.272Z,96.49
2022-10-02T21:11:56.584Z,96.88
2022-10-02T21:15:11.518Z,96.70
2022-10-02T21:17:49.557Z,96.89
2022-10-02T21:20:51.163Z,96.94
2022-10-02T21:23:49.388Z,96.83
2022-10-02T21:26:36.178Z,96.75
2022-10-02T21:29:12.022Z,96.70
2022-10-02T21:32:35.758Z,96.33
2022-10-02T21:35:31.989Z,97.47
2022-10-02T21:38:31.108Z,98.19
2022-10-02T21:41:22.750Z,97.66
2022-10-02T21:44:05.200Z,97.19
2022-10-02T21:47:03.018Z,96.70
2022-10-02T21:49:56.296Z,98.64
2022-10-02T21:53:11.474Z,98.72
2022-10-02T21:56:02.843Z,98.12
2022-10-02T21:58:45.082Z,97.74
2022-10-02T22:01:36.314Z,98.35
2022-10-02T22:04:51.434Z,98.63
2022-10-02T22:07:31.529Z,98.90
2022-10-02T22:10:25.613Z,98.78
2022-10-02T22:13:08.914Z,98.30
2022-10-02T22:15:51.030Z,97.80
2022-10-02T22:18:23.567Z,97.81
2022-10-02T22:20:52.875Z,96.97
2022-10-02T22:23:41.485Z,97.24
2022-10-02T22:26:29.653Z,95.95
2022-10-02T22:29:01.594Z,96.38
2022-10-02T22:31:28.411Z,96.80
2022-10-02T22:34:25.741Z,97.16
2022-10-02T22:37:07.303Z,96.66
2022-10-02T22:39:40.431Z,95.74
2022-10-02T22:42:31.272Z,96.40
2022-10-02T22:45:12.101Z,96.63
2022-10-02T22:47:47.166Z,97.72
2022-10-02T22:50:34.347Z,98.32
2022-10-02T22:53:33.429Z,98.16
2022-10-02T22:56:01.416Z,97.27
2022-10-02T22:58:39.687Z,97.87
2022-10-02T23:01:20.208Z,98.14
2022-10-02T23:03:54.502Z,97.65
2022-10-02T23:06:31.380Z,97.30
2022-10-02T23:09:16.675Z,97.74
2022-10-02T23:11:53.687Z,98.32
2022-10-02T23:14:47.904Z,98.77
2022-10-02T23:17:22.544Z,97.67
2022-10-02T23:19:54.140Z,96.74
2022-10-02T23:22:35.435Z,97.32
2022-10-02T23:25:48.054Z,96.94
2022-10-02T23:28:40.794Z,96.88
2022-10-02T23:31:30.563Z,97.19
2022-10-02T23:34:21.766Z,98.12
2022-10-02T23:36:56.231Z,97.42
2022-10-02T23:39:28.247Z,97.20
2022-10-02T23:41:58.487Z,97.45
2022-10-02T23:44:50.236Z,96.90
2022-10-02T23:47:31.959Z,96.31
2022-10-02T23:49:59.748Z,96.34
2022-10-02T23:52:48.540Z,95.82
2022-10-02T23:55:53.641Z,95.23
2022-10-02T23:58:48.617Z,93.89
